createdAt,value
2022-09-30T00:01:06.261Z,8.20
2022-09-30T00:04:15.550Z,8.30
2022-09-30T00:07:14.124Z,8.30
2022-09-30T00:10:15.359Z,8.40
2022-09-30T00:13:13.673Z,8.30
2022-09-30T00:16:14.730Z,8.20
2022-09-30T00:19:14.451Z,8.10
2022-09-30T00:22:13.318Z,8.10
2022-09-30T00:25:12.594Z,8.10
2022-09-30T00:28:11.456Z,8.10
2022-09-30T00:31:13.662Z,8.10
2022-09-30T00:34:12.541Z,8.10
2022-09-30T00:37:12.232Z,8.10
2022-09-30T00:40:12.550Z,8.10
2022-09-30T00:43:15.834Z,8.10
2022-09-30T00:46:35.863Z,8.10
2022-09-30T00:49:34.693Z,8.10
2022-09-30T00:52:34.642Z,8.10
2022-09-30T00:55:45.298Z,8.10
2022-09-30T00:58:56.109Z,8.10
2022-09-30T01:01:55.025Z,8.10
2022-09-30T01:04:55.361Z,8.10
2022-09-30T01:07:57.200Z,8.10
2022-09-30T01:10:56.071Z,8.10
2022-09-30T01:13:58.799Z,8.10
2022-09-30T01:17:21.512Z,8.10
2022-09-30T01:20:50.923Z,8.10
2022-09-30T01:24:16.846Z,8.10
2022-09-30T01:27:50.428Z,8.10
2022-09-30T01:31:11.054Z,8.20
2022-09-30T01:34:36.993Z,8.20
2022-09-30T01:38:06.453Z,8.10
2022-09-30T01:41:11.589Z,8.20
2022-09-30T01:44:19.122Z,8.30
2022-09-30T01:47:44.179Z,8.40
2022-09-30T01:50:54.951Z,8.40
2022-09-30T01:54:02.881Z,8.50
2022-09-30T01:57:12.286Z,8.60
2022-09-30T02:00:12.488Z,8.60
2022-09-30T02:03:18.291Z,8.70
2022-09-30T02:06:22.482Z,8.70
2022-09-30T02:09:28.902Z,8.70
2022-09-30T02:12:33.107Z,8.80
2022-09-30T02:15:40.649Z,8.80
2022-09-30T02:18:45.600Z,8.90
2022-09-30T02:21:48.565Z,9.00
2022-09-30T02:24:52.732Z,9.00
2022-09-30T02:27:58.418Z,9.10
2022-09-30T02:31:01.167Z,9.10
2022-09-30T02:34:08.231Z,9.30
2022-09-30T02:37:11.374Z,9.30
2022-09-30T02:40:24.247Z,9.40
2022-09-30T02:43:23.188Z,9.40
2022-09-30T02:46:48.449Z,9.50
2022-09-30T02:49:52.945Z,9.60
2022-09-30T02:53:15.184Z,9.80
2022-09-30T02:56:30.401Z,9.90
2022-09-30T02:59:29.369Z,10.10
2022-09-30T03:02:27.816Z,10.30
2022-09-30T03:05:28.028Z,10.50
2022-09-30T03:08:27.566Z,10.60
2022-09-30T03:11:28.879Z,10.70
2022-09-30T03:14:47.706Z,10.80
2022-09-30T03:18:01.516Z,10.90
2022-09-30T03:21:11.753Z,11.00
2022-09-30T03:24:27.513Z,11.30
2022-09-30T03:27:41.559Z,11.50
2022-09-30T03:31:01.083Z,11.60
2022-09-30T03:34:23.319Z,11.80
2022-09-30T03:37:47.380Z,11.80
2022-09-30T03:41:01.187Z,11.80
2022-09-30T03:44:24.161Z,11.70
2022-09-30T03:47:25.186Z,11.60
2022-09-30T03:50:26.984Z,11.50
2022-09-30T03:53:26.903Z,11.50
2022-09-30T03:56:28.859Z,11.40
2022-09-30T03:59:29.427Z,11.40
2022-09-30T04:02:28.578Z,11.50
2022-09-30T04:05:27.070Z,11.40
2022-09-30T04:08:25.980Z,11.30
2022-09-30T04:11:24.384Z,11.30
2022-09-30T04:14:23.090Z,11.40
2022-09-30T04:17:21.824Z,11.50
2022-09-30T04:20:20.597Z,11.60
2022-09-30T04:23:19.221Z,11.60
2022-09-30T04:26:20.731Z,11.50
2022-09-30T04:29:19.249Z,11.60
2022-09-30T04:32:17.989Z,11.80
2022-09-30T04:35:16.653Z,11.80
2022-09-30T04:38:15.639Z,11.80
2022-09-30T04:41:16.908Z,11.90
2022-09-30T04:44:16.149Z,12.00
2022-09-30T04:47:16.156Z,12.10
2022-09-30T04:50:15.036Z,12.10
2022-09-30T04:53:15.539Z,12.20
2022-09-30T04:56:15.052Z,12.20
2022-09-30T04:59:14.120Z,12.30
2022-09-30T05:02:14.240Z,12.50
2022-09-30T05:05:12.777Z,12.50
2022-09-30T05:08:11.493Z,12.50
2022-09-30T05:11:14.362Z,12.50
2022-09-30T05:14:13.156Z,12.50
2022-09-30T05:17:11.602Z,12.70
2022-09-30T05:20:11.800Z,12.70
2022-09-30T05:23:10.409Z,12.60
2022-09-30T05:26:12.233Z,12.40
2022-09-30T05:29:11.872Z,12.40
2022-09-30T05:32:10.998Z,12.50
2022-09-30T05:35:10.008Z,12.50
2022-09-30T05:38:09.900Z,12.50
2022-09-30T05:41:11.997Z,12.40
2022-09-30T05:44:10.896Z,12.40
2022-09-30T05:47:12.185Z,12.60
2022-09-30T05:50:10.945Z,12.60
2022-09-30T05:53:09.353Z,12.60
2022-09-30T05:56:09.572Z,12.60
2022-09-30T05:59:08.334Z,12.60
2022-09-30T06:02:07.739Z,12.60
2022-09-30T06:05:07.599Z,12.70
2022-09-30T06:08:07.942Z,12.70
2022-09-30T06:11:12.611Z,12.80
2022-09-30T06:14:11.634Z,13.00
2022-09-30T06:17:10.070Z,13.10
2022-09-30T06:20:10.430Z,13.10
2022-09-30T06:23:08.971Z,13.10
2022-09-30T06:26:10.281Z,13.20
2022-09-30T06:29:08.750Z,13.10
2022-09-30T06:32:08.230Z,13.10
2022-09-30T06:35:07.071Z,13.00
2022-09-30T06:38:05.832Z,13.00
2022-09-30T06:41:05.050Z,13.10
2022-09-30T06:44:05.289Z,13.10
2022-09-30T06:47:04.283Z,13.20
2022-09-30T06:50:04.044Z,13.30
2022-09-30T06:53:06.904Z,13.30
2022-09-30T06:56:05.832Z,13.30
2022-09-30T06:59:05.204Z,13.40
2022-09-30T07:02:04.205Z,13.40
2022-09-30T07:05:04.744Z,13.40
2022-09-30T07:08:03.998Z,13.30
2022-09-30T07:11:05.514Z,13.30
2022-09-30T07:14:05.497Z,13.20
2022-09-30T07:17:05.225Z,13.30
2022-09-30T07:20:04.341Z,13.30
2022-09-30T07:23:02.927Z,13.30
2022-09-30T07:26:05.220Z,13.30
2022-09-30T07:29:03.703Z,13.20
2022-09-30T07:32:02.949Z,12.90
2022-09-30T07:35:04.540Z,12.30
2022-09-30T07:38:03.435Z,15.10
2022-09-30T07:41:05.402Z,12.00
2022-09-30T07:44:06.766Z,11.70
2022-09-30T07:47:05.409Z,11.60
2022-09-30T07:50:04.663Z,11.50
2022-09-30T07:53:03.110Z,11.10
2022-09-30T07:56:06.989Z,10.90
2022-09-30T07:59:06.957Z,10.70
2022-09-30T08:02:07.098Z,10.60
2022-09-30T08:05:05.975Z,10.40
2022-09-30T08:08:05.069Z,10.30
2022-09-30T08:11:05.635Z,10.20
2022-09-30T08:14:05.036Z,10.20
2022-09-30T08:17:03.535Z,10.20
2022-09-30T08:20:02.545Z,10.30
2022-09-30T08:23:01.615Z,10.20
2022-09-30T08:26:03.743Z,10.20
2022-09-30T08:29:02.364Z,10.30
2022-09-30T08:32:01.346Z,10.20
2022-09-30T08:35:00.072Z,10.50
2022-09-30T08:37:58.976Z,10.50
2022-09-30T08:41:25.607Z,10.60
2022-09-30T08:44:36.148Z,10.80
2022-09-30T08:47:55.600Z,10.90
2022-09-30T08:51:23.288Z,11.10
2022-09-30T08:54:26.368Z,11.30
2022-09-30T08:57:37.675Z,11.30
2022-09-30T09:00:37.022Z,11.40
2022-09-30T09:03:35.834Z,11.60
2022-09-30T09:06:55.434Z,11.60
2022-09-30T09:10:19.163Z,11.60
2022-09-30T09:13:46.851Z,11.70
2022-09-30T09:17:04.154Z,11.90
2022-09-30T09:20:15.032Z,12.00
2022-09-30T09:23:15.206Z,12.10
2022-09-30T09:26:16.807Z,12.30
2022-09-30T09:29:40.765Z,12.40
2022-09-30T09:32:39.635Z,12.70
2022-09-30T09:36:00.472Z,12.70
2022-09-30T09:39:13.951Z,12.90
2022-09-30T09:42:36.968Z,12.90
2022-09-30T09:45:46.226Z,13.00
2022-09-30T09:48:45.303Z,13.10
2022-09-30T09:52:03.862Z,13.10
2022-09-30T09:55:02.732Z,13.10
2022-09-30T09:58:14.478Z,13.10
2022-09-30T10:01:33.032Z,13.00
2022-09-30T10:04:33.912Z,12.80
2022-09-30T10:07:34.318Z,12.80
2022-09-30T10:10:46.518Z,12.70
2022-09-30T10:13:46.773Z,12.60
2022-09-30T10:16:45.502Z,12.60
2022-09-30T10:19:51.672Z,12.50
2022-09-30T10:22:50.386Z,12.40
2022-09-30T10:25:58.693Z,12.30
2022-09-30T10:28:58.561Z,12.20
2022-09-30T10:32:00.888Z,12.20
2022-09-30T10:35:18.646Z,12.10
2022-09-30T10:38:17.363Z,12.10
2022-09-30T10:41:24.504Z,12.00
2022-09-30T10:44:26.524Z,12.00
2022-09-30T10:47:27.276Z,11.80
2022-09-30T10:50:28.165Z,11.70
2022-09-30T10:53:30.330Z,11.70
2022-09-30T10:56:40.311Z,11.60
2022-09-30T10:59:39.761Z,11.50
2022-09-30T11:02:55.622Z,11.30
2022-09-30T11:05:54.725Z,11.30
2022-09-30T11:09:15.336Z,11.20
2022-09-30T11:12:34.249Z,11.20
2022-09-30T11:15:43.485Z,10.90
2022-09-30T11:18:50.872Z,10.90
2022-09-30T11:22:00.882Z,10.80
2022-09-30T11:24:59.587Z,10.70
2022-09-30T11:28:29.055Z,10.60
2022-09-30T11:31:46.162Z,10.50
2022-09-30T11:34:54.685Z,10.40
2022-09-30T11:38:11.260Z,10.30
2022-09-30T11:41:40.928Z,10.20
2022-09-30T11:44:42.322Z,10.20
2022-09-30T11:47:57.214Z,10.10
2022-09-30T11:51:14.901Z,10.00
2022-09-30T11:54:42.885Z,9.90
2022-09-30T11:57:54.130Z,9.80
2022-09-30T12:01:00.660Z,9.60
2022-09-30T12:04:05.898Z,9.50
2022-09-30T12:07:14.969Z,9.40
2022-09-30T12:10:39.685Z,9.40
2022-09-30T12:13:44.933Z,9.30
2022-09-30T12:16:46.149Z,9.30
2022-09-30T12:19:51.560Z,9.20
2022-09-30T12:22:52.569Z,9.10
2022-09-30T12:26:06.963Z,9.00
2022-09-30T12:29:32.042Z,9.00
2022-09-30T12:33:01.455Z,8.90
2022-09-30T12:36:21.281Z,8.80
2022-09-30T12:39:47.467Z,8.80
2022-09-30T12:43:07.133Z,8.70
2022-09-30T12:46:29.864Z,8.60
2022-09-30T12:49:30.578Z,8.60
2022-09-30T12:57:07.001Z,8.50
2022-09-30T13:00:27.988Z,8.30
2022-09-30T13:03:27.834Z,8.40
2022-09-30T13:06:48.674Z,8.30
2022-09-30T13:10:29.534Z,8.30
2022-09-30T13:13:37.336Z,8.30
2022-09-30T13:17:12.344Z,8.20
2022-09-30T13:20:50.119Z,8.30
2022-09-30T13:23:53.957Z,8.20
2022-09-30T13:27:10.035Z,8.30
2022-09-30T13:30:34.544Z,8.20
2022-09-30T13:33:47.771Z,8.20
2022-09-30T13:37:05.868Z,8.20
2022-09-30T13:40:14.362Z,8.30
2022-09-30T13:43:24.500Z,8.20
2022-09-30T13:46:51.223Z,8.10
2022-09-30T13:50:01.766Z,8.00
2022-09-30T13:53:08.571Z,7.70
2022-09-30T14:06:02.176Z,6.80
2022-09-30T14:09:34.489Z,6.70
2022-09-30T14:12:53.495Z,6.50
2022-09-30T14:16:10.929Z,6.40
2022-09-30T14:19:24.474Z,6.30
2022-09-30T14:22:27.356Z,6.00
2022-09-30T14:25:36.289Z,6.00
2022-09-30T14:28:48.033Z,6.00
2022-09-30T14:31:47.581Z,5.90
2022-09-30T14:34:48.618Z,5.80
2022-09-30T14:37:53.138Z,5.80
2022-09-30T14:40:53.856Z,5.60
2022-09-30T14:43:57.425Z,5.60
2022-09-30T14:47:02.046Z,5.60
2022-09-30T14:50:02.539Z,5.50
2022-09-30T14:53:03.805Z,5.50
2022-09-30T14:56:05.054Z,5.40
2022-09-30T14:59:19.252Z,5.40
2022-09-30T15:02:21.477Z,5.40
2022-09-30T15:05:20.567Z,5.40
2022-09-30T15:08:21.502Z,5.40
2022-09-30T15:11:24.866Z,5.30
2022-09-30T15:14:25.147Z,5.30
2022-09-30T15:17:28.534Z,5.30
2022-09-30T15:20:37.242Z,5.30
2022-09-30T15:23:40.053Z,5.30
2022-09-30T15:26:38.814Z,5.30
2022-09-30T15:29:38.153Z,5.30
2022-09-30T15:32:37.106Z,5.20
2022-09-30T15:35:36.127Z,5.20
2022-09-30T15:38:37.919Z,5.30
2022-09-30T15:41:42.033Z,5.30
2022-09-30T15:44:40.712Z,5.20
2022-09-30T15:47:59.518Z,5.30
2022-09-30T15:51:01.643Z,5.30
2022-09-30T15:54:03.290Z,5.20
2022-09-30T15:57:05.036Z,5.20
2022-09-30T16:00:09.189Z,5.20
2022-09-30T16:03:30.956Z,5.10
2022-09-30T16:06:37.898Z,5.10
2022-09-30T16:09:40.259Z,5.10
2022-09-30T16:12:42.956Z,5.00
2022-09-30T16:15:41.538Z,5.00
2022-09-30T16:18:44.899Z,5.00
2022-09-30T16:21:51.313Z,4.90
2022-09-30T16:25:00.474Z,4.90
2022-09-30T16:28:11.836Z,4.90
2022-09-30T16:31:11.490Z,4.80
2022-09-30T16:34:24.035Z,4.80
2022-09-30T16:37:25.532Z,4.80
2022-09-30T16:40:28.055Z,4.80
2022-09-30T16:43:27.568Z,4.80
2022-09-30T16:46:27.614Z,4.80
2022-09-30T16:49:28.832Z,4.80
2022-09-30T16:52:28.169Z,4.80
2022-09-30T16:55:28.595Z,4.80
2022-09-30T16:58:27.474Z,4.70
2022-09-30T17:01:27.472Z,4.70
2022-09-30T17:04:27.541Z,4.70
2022-09-30T17:07:27.015Z,4.70
2022-09-30T17:10:30.167Z,4.70
2022-09-30T17:13:29.262Z,4.70
2022-09-30T17:16:28.558Z,4.60
2022-09-30T17:19:30.659Z,4.70
2022-09-30T17:22:30.046Z,4.70
2022-09-30T17:25:28.916Z,4.70
2022-09-30T17:28:27.313Z,4.70
2022-09-30T17:31:26.220Z,4.70
2022-09-30T17:34:25.009Z,4.70
2022-09-30T17:37:25.951Z,4.70
2022-09-30T17:40:39.859Z,4.70
2022-09-30T17:43:38.759Z,4.70
2022-09-30T17:46:45.973Z,4.70
2022-09-30T17:49:45.044Z,4.70
2022-09-30T17:52:43.901Z,4.70
2022-09-30T17:55:44.176Z,4.70
2022-09-30T17:58:43.562Z,4.70
2022-09-30T18:01:42.741Z,4.60
2022-09-30T18:04:41.086Z,4.60
2022-09-30T18:07:40.000Z,4.60
2022-09-30T18:10:38.581Z,4.60
2022-09-30T18:13:40.058Z,4.60
2022-09-30T18:16:38.577Z,4.60
2022-09-30T18:19:37.752Z,4.60
2022-09-30T18:22:36.040Z,4.60
2022-09-30T18:25:35.321Z,4.50
2022-09-30T18:28:33.813Z,4.50
2022-09-30T18:31:38.200Z,4.50
2022-09-30T18:34:37.525Z,4.50
2022-09-30T18:37:37.130Z,4.50
2022-09-30T18:40:35.480Z,4.50
2022-09-30T18:43:34.398Z,4.50
2022-09-30T18:46:33.351Z,4.50
2022-09-30T18:49:32.481Z,4.50
2022-09-30T18:52:30.756Z,4.50
2022-09-30T18:55:30.415Z,4.40
2022-09-30T18:58:31.113Z,4.40
2022-09-30T19:01:30.692Z,4.40
2022-09-30T19:04:29.575Z,4.40
2022-09-30T19:07:28.610Z,4.40
2022-09-30T19:10:27.189Z,4.30
2022-09-30T19:13:29.276Z,4.20
2022-09-30T19:16:36.665Z,4.10
2022-09-30T19:19:42.493Z,4.00
2022-09-30T19:22:40.963Z,3.90
2022-09-30T19:25:40.442Z,3.90
2022-09-30T19:28:38.891Z,3.80
2022-09-30T19:31:38.272Z,3.70
2022-09-30T19:34:37.516Z,3.50
2022-09-30T19:37:37.338Z,3.50
2022-09-30T19:40:35.709Z,3.40
2022-09-30T19:43:36.087Z,3.30
2022-09-30T19:46:34.710Z,3.10
2022-09-30T19:49:33.874Z,3.10
2022-09-30T19:52:32.582Z,3.00
2022-09-30T19:55:41.385Z,2.90
2022-09-30T19:58:47.652Z,2.90
2022-09-30T20:01:46.863Z,2.80
2022-09-30T20:04:46.127Z,2.60
2022-09-30T20:07:45.124Z,2.60
2022-09-30T20:10:43.519Z,2.60
2022-09-30T20:13:43.606Z,2.50
2022-09-30T20:16:44.284Z,2.40
2022-09-30T20:19:43.207Z,2.40
2022-09-30T20:22:42.181Z,2.30
2022-09-30T20:25:42.525Z,2.20
2022-09-30T20:28:41.701Z,2.20
2022-09-30T20:31:42.618Z,2.20
2022-09-30T20:34:42.385Z,2.10
2022-09-30T20:37:41.616Z,2.10
2022-09-30T20:40:40.617Z,2.10
2022-09-30T20:43:39.609Z,2.10
2022-09-30T20:46:38.288Z,2.10
2022-09-30T20:49:37.423Z,2.10
2022-09-30T20:52:35.811Z,2.10
2022-09-30T20:55:36.513Z,2.10
2022-09-30T20:58:35.565Z,2.10
2022-09-30T21:01:35.384Z,2.10
2022-09-30T21:04:34.272Z,2.10
2022-09-30T21:07:36.082Z,2.10
2022-09-30T21:10:37.415Z,2.20
2022-09-30T21:13:38.807Z,2.20
2022-09-30T21:16:37.348Z,2.20
2022-09-30T21:19:36.581Z,2.20
2022-09-30T21:22:35.172Z,2.20
2022-09-30T21:25:34.264Z,2.20
2022-09-30T21:28:33.216Z,2.10
2022-09-30T21:31:33.902Z,2.10
2022-09-30T21:34:32.587Z,2.20
2022-09-30T21:37:31.655Z,2.20
2022-09-30T21:40:29.986Z,2.10
2022-09-30T21:43:31.734Z,2.20
2022-09-30T21:46:30.359Z,2.20
2022-09-30T21:49:29.535Z,2.20
2022-09-30T21:52:32.579Z,2.20
2022-09-30T21:55:34.913Z,2.20
2022-09-30T21:58:34.148Z,2.20
2022-09-30T22:01:33.710Z,2.20
2022-09-30T22:04:32.728Z,2.30
2022-09-30T22:07:33.539Z,2.30
2022-09-30T22:10:32.458Z,2.30
2022-09-30T22:13:32.057Z,2.30
2022-09-30T22:16:35.355Z,2.30
2022-09-30T22:19:34.145Z,2.30
2022-09-30T22:22:32.405Z,2.20
2022-09-30T22:25:33.162Z,2.20
2022-09-30T22:28:31.396Z,2.20
2022-09-30T22:31:32.755Z,2.20
2022-09-30T22:34:46.730Z,2.20
2022-09-30T22:38:05.245Z,2.10
2022-09-30T22:41:03.584Z,2.20
2022-09-30T22:44:02.671Z,2.20
2022-09-30T22:47:05.115Z,2.10
2022-09-30T22:50:05.029Z,2.10
2022-09-30T22:53:03.337Z,2.10
2022-09-30T22:56:04.970Z,2.20
2022-09-30T22:59:06.216Z,2.20
2022-09-30T23:02:05.840Z,2.10
2022-09-30T23:05:04.637Z,2.10
2022-09-30T23:08:03.875Z,2.10
2022-09-30T23:11:02.903Z,2.10
2022-09-30T23:14:03.856Z,2.00
2022-09-30T23:17:02.452Z,2.00
2022-09-30T23:20:02.450Z,1.80
2022-09-30T23:23:00.779Z,1.80
2022-09-30T23:26:05.456Z,1.70
2022-09-30T23:29:07.568Z,1.60
2022-09-30T23:32:06.585Z,1.50
2022-09-30T23:35:05.661Z,1.40
2022-09-30T23:38:04.679Z,1.40
2022-09-30T23:41:02.965Z,1.30
2022-09-30T23:44:02.034Z,1.20
2022-09-30T23:47:15.667Z,1.20
2022-09-30T23:50:14.773Z,1.10
2022-09-30T23:53:13.062Z,1.00
2022-09-30T23:56:15.229Z,1.00
2022-09-30T23:59:15.254Z,1.00
